createdAt,value
2023-04-17T00:02:22.501Z,37.78
2023-04-17T00:07:28.402Z,45.88
2023-04-17T00:12:32.520Z,41.17
2023-04-17T00:17:35.467Z,40.72
2023-04-17T00:22:38.317Z,43.88
2023-04-17T00:27:42.895Z,38.30
2023-04-17T00:32:45.964Z,43.40
2023-04-17T00:37:49.302Z,43.70
2023-04-17T00:42:56.249Z,41.38
2023-04-17T00:48:02.268Z,40.17
2023-04-17T00:53:05.123Z,45.65
2023-04-17T00:58:10.097Z,41.72
2023-04-17T01:03:13.304Z,37.80
2023-04-17T01:08:16.612Z,40.03
2023-04-17T01:13:20.858Z,45.10
2023-04-17T01:18:23.752Z,43.75
2023-04-17T01:23:28.485Z,39.30
2023-04-17T01:28:32.579Z,39.15
2023-04-17T01:33:35.385Z,41.30
2023-04-17T01:38:38.585Z,40.45
2023-04-17T01:43:44.084Z,45.50
2023-04-17T01:48:47.650Z,40.90
2023-04-17T01:53:50.456Z,41.45
2023-04-17T01:58:54.631Z,44.25
2023-04-17T02:03:57.627Z,42.33
2023-04-17T02:09:00.650Z,46.35
2023-04-17T02:14:04.769Z,41.63
2023-04-17T02:19:07.553Z,47.25
2023-04-17T02:24:10.393Z,54.92
2023-04-17T02:29:14.670Z,51.28
2023-04-17T02:34:18.069Z,53.63
2023-04-17T02:39:21.478Z,60.55
2023-04-17T02:44:25.626Z,52.88
2023-04-17T02:49:28.493Z,53.78
2023-04-17T02:54:32.432Z,57.25
2023-04-17T02:59:36.975Z,53.58
2023-04-17T03:04:39.785Z,58.70
2023-04-17T03:09:42.723Z,56.40
2023-04-17T03:14:47.474Z,56.30
2023-04-17T03:19:50.257Z,48.10
2023-04-17T03:24:53.245Z,54.42
2023-04-17T03:29:59.182Z,56.03
2023-04-17T03:35:03.151Z,46.72
2023-04-17T03:40:08.824Z,49.80
2023-04-17T03:45:13.274Z,53.97
2023-04-17T03:50:16.468Z,50.10
2023-04-17T03:55:26.153Z,61.92
2023-04-17T04:00:32.602Z,56.78
2023-04-17T04:05:41.757Z,62.42
2023-04-17T04:10:47.091Z,64.03
2023-04-17T04:15:57.383Z,54.80
2023-04-17T04:21:03.458Z,56.85
2023-04-17T04:31:18.715Z,61.67
2023-04-17T04:36:23.071Z,52.00
2023-04-17T04:41:34.928Z,53.05
2023-04-17T04:46:42.441Z,59.03
2023-04-17T04:51:45.418Z,53.35
2023-04-17T04:56:49.069Z,56.75
2023-04-17T05:01:53.864Z,57.40
2023-04-17T05:12:05.633Z,54.63
2023-04-17T05:17:10.731Z,54.38
2023-04-17T05:22:14.666Z,56.30
2023-04-17T05:27:35.426Z,62.58
2023-04-17T05:32:40.795Z,57.05
2023-04-17T05:38:05.724Z,59.33
2023-04-17T05:43:10.469Z,63.50
2023-04-17T05:48:15.835Z,63.22
2023-04-17T05:53:19.684Z,62.63
2023-04-17T05:58:26.732Z,70.43
2023-04-17T06:03:34.005Z,61.25
2023-04-17T06:08:44.600Z,62.38
2023-04-17T06:13:47.522Z,60.67
2023-04-17T06:18:53.703Z,55.30
2023-04-17T06:23:56.607Z,55.88
2023-04-17T06:29:00.829Z,54.47
2023-04-17T06:34:09.255Z,57.60
2023-04-17T06:39:17.125Z,63.15
2023-04-17T06:44:22.372Z,66.93
2023-04-17T06:49:27.588Z,58.63
2023-04-17T06:54:30.394Z,51.00
2023-04-17T06:59:35.729Z,51.38
2023-04-17T07:04:40.442Z,46.38
2023-04-17T07:09:45.293Z,37.90
2023-04-17T07:14:48.143Z,40.72
2023-04-17T07:19:52.444Z,38.13
2023-04-17T07:24:55.345Z,40.67
2023-04-17T07:29:58.135Z,40.05
2023-04-17T07:35:02.999Z,23.73
2023-04-17T07:40:10.348Z,28.08
2023-04-17T07:45:13.525Z,19.15
2023-04-17T07:50:19.720Z,53.28
2023-04-17T07:55:22.752Z,23.05
2023-04-17T08:00:25.615Z,19.05
2023-04-17T08:05:30.133Z,22.05
2023-04-17T08:10:32.960Z,22.77
2023-04-17T08:15:40.688Z,19.13
2023-04-17T08:20:44.884Z,119.45
2023-04-17T08:25:49.921Z,89.93
2023-04-17T08:30:53.889Z,26.30
2023-04-17T08:35:59.083Z,24.15
2023-04-17T08:41:07.981Z,27.60
2023-04-17T08:46:11.398Z,31.48
2023-04-17T08:51:16.216Z,20.05
2023-04-17T08:56:18.957Z,22.70
2023-04-17T09:01:21.860Z,23.05
2023-04-17T09:06:29.200Z,18.65
2023-04-17T09:11:31.965Z,17.37
2023-04-17T09:16:36.215Z,23.30
2023-04-17T09:21:40.544Z,17.38
2023-04-17T09:26:43.360Z,19.23
2023-04-17T09:31:47.591Z,22.42
2023-04-17T09:36:55.909Z,18.77
2023-04-17T09:42:03.789Z,25.00
2023-04-17T09:47:08.773Z,20.88
2023-04-17T09:52:14.263Z,22.00
2023-04-17T09:57:19.110Z,21.08
2023-04-17T10:02:22.645Z,22.05
2023-04-17T10:07:27.918Z,21.38
2023-04-17T10:12:33.324Z,18.67
2023-04-17T10:17:38.190Z,17.23
2023-04-17T10:22:43.913Z,22.58
2023-04-17T10:27:49.953Z,18.45
2023-04-17T10:33:22.872Z,20.25
2023-04-17T10:38:37.448Z,16.17
2023-04-17T10:43:45.903Z,20.23
2023-04-17T10:48:52.057Z,16.02
2023-04-17T10:53:58.890Z,19.33
2023-04-17T10:59:03.283Z,20.13
2023-04-17T11:04:06.866Z,18.48
2023-04-17T11:09:12.127Z,17.35
2023-04-17T11:14:19.379Z,19.50
2023-04-17T11:19:23.537Z,12.48
2023-04-17T11:24:30.079Z,9.52
2023-04-17T11:29:33.679Z,13.75
2023-04-17T11:34:38.669Z,8.65
2023-04-17T11:39:45.014Z,10.98
2023-04-17T11:44:48.632Z,11.82
2023-04-17T11:49:52.599Z,19.52
2023-04-17T11:55:00.021Z,14.27
2023-04-17T12:00:14.436Z,14.45
2023-04-17T12:05:18.557Z,14.05
2023-04-17T12:10:24.815Z,8.23
2023-04-17T12:15:27.636Z,13.70
2023-04-17T12:20:32.266Z,6.57
2023-04-17T12:25:37.017Z,7.43
2023-04-17T12:30:39.874Z,6.82
2023-04-17T12:35:43.610Z,5.47
2023-04-17T12:40:47.723Z,10.50
2023-04-17T12:45:50.850Z,8.77
2023-04-17T12:50:54.463Z,11.00
2023-04-17T12:55:58.604Z,7.18
2023-04-17T13:01:03.531Z,7.10
2023-04-17T13:06:06.558Z,9.82
2023-04-17T13:11:13.056Z,5.78
2023-04-17T13:16:16.137Z,12.13
2023-04-17T13:21:19.138Z,10.75
2023-04-17T13:26:26.683Z,7.40
2023-04-17T13:31:31.728Z,10.07
2023-04-17T13:36:35.126Z,5.05
2023-04-17T13:41:39.399Z,8.48
2023-04-17T13:46:44.263Z,7.20
2023-04-17T13:51:47.189Z,8.40
2023-04-17T13:56:51.509Z,6.72
2023-04-17T14:01:55.220Z,9.02
2023-04-17T14:07:00.893Z,9.10
2023-04-17T14:12:08.105Z,9.07
2023-04-17T14:17:11.206Z,8.15
2023-04-17T14:22:15.360Z,5.57
2023-04-17T14:27:20.147Z,10.55
2023-04-17T14:32:23.873Z,8.05
2023-04-17T14:37:28.343Z,12.40
2023-04-17T14:42:38.253Z,8.00
2023-04-17T14:47:56.401Z,11.65
2023-04-17T14:53:02.986Z,11.98
2023-04-17T14:58:07.261Z,9.20
2023-04-17T15:03:10.145Z,8.85
2023-04-17T15:08:13.339Z,14.30
2023-04-17T15:13:17.433Z,13.98
2023-04-17T15:18:20.845Z,12.88
2023-04-17T15:23:25.413Z,12.45
2023-04-17T15:28:29.631Z,12.85
2023-04-17T15:33:32.448Z,12.18
2023-04-17T15:38:38.304Z,16.17
2023-04-17T15:43:42.576Z,16.58
2023-04-17T15:48:54.975Z,12.10
2023-04-17T15:54:08.276Z,11.75
2023-04-17T15:59:13.131Z,11.80
2023-04-17T16:04:19.378Z,13.38
2023-04-17T16:09:24.523Z,11.55
2023-04-17T16:14:29.414Z,17.40
2023-04-17T16:19:33.028Z,15.07
2023-04-17T16:24:35.955Z,17.70
2023-04-17T16:29:40.311Z,14.82
2023-04-17T16:34:43.974Z,12.15
2023-04-17T16:39:52.396Z,13.25
2023-04-17T16:45:00.181Z,17.80
2023-04-17T16:50:04.804Z,11.00
2023-04-17T16:55:10.132Z,14.23
2023-04-17T17:00:15.377Z,18.70
2023-04-17T17:05:18.143Z,26.55
2023-04-17T17:10:21.094Z,14.05
2023-04-17T17:15:25.680Z,13.05
2023-04-17T17:20:30.035Z,16.23
2023-04-17T17:25:33.312Z,19.88
2023-04-17T17:30:37.644Z,15.70
2023-04-17T17:35:40.500Z,18.52
2023-04-17T17:40:46.176Z,16.17
2023-04-17T17:45:51.980Z,43.00
2023-04-17T17:50:55.004Z,26.17
2023-04-17T17:55:58.311Z,14.00
2023-04-17T18:01:03.325Z,13.85
2023-04-17T18:06:06.331Z,17.70
2023-04-17T18:11:09.026Z,10.95
2023-04-17T18:16:13.185Z,20.80
2023-04-17T18:21:15.962Z,16.17
2023-04-17T18:26:19.415Z,15.73
2023-04-17T18:31:25.137Z,17.50
2023-04-17T18:36:28.929Z,17.40
2023-04-17T18:41:32.342Z,34.55
2023-04-17T18:46:37.614Z,22.33
2023-04-17T18:51:45.366Z,19.00
2023-04-17T18:56:48.250Z,20.08
2023-04-17T19:01:52.445Z,20.80
2023-04-17T19:06:55.293Z,18.67
2023-04-17T19:11:58.561Z,16.20
2023-04-17T19:17:03.349Z,13.80
2023-04-17T19:22:06.458Z,19.55
2023-04-17T19:27:09.188Z,16.67
2023-04-17T19:32:16.328Z,21.05
2023-04-17T19:37:20.090Z,18.02
2023-04-17T19:42:24.880Z,17.25
2023-04-17T19:47:31.047Z,19.27
2023-04-17T19:52:33.955Z,15.27
2023-04-17T19:57:37.164Z,20.73
2023-04-17T20:02:41.685Z,18.20
2023-04-17T20:07:44.495Z,21.52
2023-04-17T20:12:47.421Z,17.73
2023-04-17T20:17:52.116Z,16.00
2023-04-17T20:22:54.897Z,20.17
2023-04-17T20:27:58.201Z,12.75
2023-04-17T20:33:02.421Z,21.63
2023-04-17T20:38:06.235Z,17.15
2023-04-17T20:43:09.493Z,23.00
2023-04-17T20:48:13.686Z,15.18
2023-04-17T20:53:16.894Z,16.80
2023-04-17T20:58:20.095Z,13.60
2023-04-17T21:03:24.731Z,16.42
2023-04-17T21:08:27.861Z,13.05
2023-04-17T21:13:30.896Z,23.13
2023-04-17T21:18:35.372Z,18.30
2023-04-17T21:23:40.250Z,13.43
2023-04-17T21:28:43.654Z,18.33
2023-04-17T21:33:47.745Z,14.93
2023-04-17T21:38:50.477Z,15.40
2023-04-17T21:43:53.604Z,16.50
2023-04-17T21:48:57.954Z,14.60
2023-04-17T21:54:00.692Z,15.93
2023-04-17T21:59:03.553Z,20.08
2023-04-17T22:04:07.667Z,16.75
2023-04-17T22:09:10.500Z,21.52
2023-04-17T22:14:13.640Z,13.95
2023-04-17T22:19:17.804Z,18.83
2023-04-17T22:24:20.662Z,20.33
2023-04-17T22:29:23.428Z,14.95
2023-04-17T22:34:27.480Z,16.02
2023-04-17T22:39:30.488Z,32.25
2023-04-17T22:44:34.249Z,20.42
2023-04-17T22:49:38.743Z,18.27
2023-04-17T22:54:41.468Z,19.17
2023-04-17T22:59:44.232Z,20.00
2023-04-17T23:04:48.271Z,15.85
2023-04-17T23:09:51.025Z,17.20
2023-04-17T23:14:53.860Z,17.45
2023-04-17T23:19:57.908Z,19.33
2023-04-17T23:25:00.650Z,15.85
2023-04-17T23:30:03.664Z,18.83
2023-04-17T23:35:10.236Z,20.92
2023-04-17T23:40:13.664Z,19.95
2023-04-17T23:45:16.415Z,26.67
2023-04-17T23:50:20.704Z,19.02
2023-04-17T23:55:26.284Z,25.73
